Kezdőlap
METAR-TAF:

METAR-TAF

Repülőterek :

Uíge, Angola

földrajzi szélesség: 7-36-10S, földrajzi hosszúság: 15-1-40E, magasság: 829 m

Jelenlegi meteorológiai megfigyelések

A jelentés 1 órával és 43 perccel ezelõtt készült, 16:00 UTC
Nyugati szél 4 kt
Hőmérséklet 27°C
Páratartalom 66%
Légköri nyomás 1010 hPa
Látótávolság 10 km, vagy több
Kevés felhő 2500 lábon
Szakadozott felhőzet 9000 lábon

METAR: FNUG 151600Z 27004KT 9999 FEW025 BKN090 27/20 Q1010

Idő: 18:43 (17:43 UTC)


TAF: hiányzik

Meteorológiai megfigyelések és előrejelzések több, mint 4000 repülőtéren (METAR és TAF jelentéseket).

A térképen piros és sárga pontok jelzik az elérhető meteorológiai állomásokat.

Mozgassa az egeret a pont fölött, hogy megjelenjen az állomás neve.

Azután kattintson az időjárási megfigyelések és előrejelzések megtekintéséhez.

A térkép megváltoztatása: kattintson a fekete keresztel jelölt zöld gombra ráközelítéshez, a vonallal jelölt zöld gombra távolításhoz, vagy a zöld nyilakra a szomszédos térképek eléréséhez.


METAR-TAF: